Time;durP1;ratioP1;P1;durP2;ratioP2;P2;SDS_P1;SDS_P2;PMS_P1;PMS_P2;Temp;Humidity;BMP_temperature;BMP_pressure;BME280_temperature;BME280_humidity;BME280_pressure;Samples;Min_cycle;Max_cycle;Signal;HPM_P1;HPM_P2
2024/04/09 00:02:30;;;;;;;9.67;4.80;;;;;;;15.04;53.10;100869.16;123464;1099;104341;-72
2024/04/09 00:05:00;;;;;;;10.13;4.80;;;;;;;15.05;52.74;100862.10;123092;1099;108020;-73
2024/04/09 00:07:30;;;;;;;11.17;4.97;;;;;;;15.04;53.63;100868.27;123448;1098;104280;-73
2024/04/09 00:10:06;;;;;;;12.73;4.80;;;;;;;15.01;53.26;100865.55;123442;1099;104376;-73
2024/04/09 00:12:37;;;;;;;12.33;5.00;;;;;;;14.99;53.71;100860.23;123270;1099;104281;-73
2024/04/09 00:15:08;;;;;;;13.03;5.10;;;;;;;14.96;53.79;100853.96;123451;1099;104424;-73
2024/04/09 00:17:44;;;;;;;9.63;5.03;;;;;;;14.94;53.52;100856.56;123509;1099;104272;-73
2024/04/09 00:20:18;;;;;;;15.50;5.80;;;;;;;14.94;53.54;100853.05;123380;1099;104287;-72
2024/04/09 00:22:48;;;;;;;13.78;5.25;;;;;;;14.92;53.70;100855.65;123340;1099;104437;-72
2024/04/09 00:25:18;;;;;;;14.40;5.20;;;;;;;14.92;53.59;100858.29;123337;1099;104387;-73
2024/04/09 00:27:52;;;;;;;18.90;5.93;;;;;;;14.92;54.25;100850.36;123165;1099;104319;-73
2024/04/09 00:30:23;;;;;;;14.23;5.83;;;;;;;14.89;53.27;100848.53;123328;1099;104344;-72
2024/04/09 00:32:53;;;;;;;15.57;5.67;;;;;;;14.88;53.91;100852.05;123138;1102;104326;-72
2024/04/09 00:35:26;;;;;;;14.93;4.90;;;;;;;14.86;54.33;100847.58;123201;1099;104358;-73
2024/04/09 00:37:56;;;;;;;12.83;4.93;;;;;;;14.84;54.44;100854.59;123578;1099;104245;-72
2024/04/09 00:40:29;;;;;;;11.00;5.57;;;;;;;14.81;53.38;100849.23;123357;1099;104396;-72
2024/04/09 00:43:02;;;;;;;14.63;4.80;;;;;;;14.78;54.13;100851.80;123489;1099;104357;-73
2024/04/09 00:45:32;;;;;;;13.83;5.03;;;;;;;14.73;53.49;100844.64;123380;1099;104306;-72
2024/04/09 00:48:03;;;;;;;12.40;5.17;;;;;;;14.68;54.55;100848.92;123334;1099;104205;-72
2024/04/09 00:50:34;;;;;;;11.13;5.20;;;;;;;14.68;53.85;100851.57;123195;1099;104356;-72
2024/04/09 00:53:06;;;;;;;13.33;5.23;;;;;;;14.67;54.25;100849.77;123158;1099;104803;-72
2024/04/09 00:55:40;;;;;;;15.73;5.80;;;;;;;14.63;53.86;100840.01;123142;1099;104300;-72
2024/04/09 00:58:12;;;;;;;9.73;5.10;;;;;;;14.60;53.87;100836.34;123173;1099;104294;-72
2024/04/09 01:00:43;;;;;;;10.27;4.77;;;;;;;14.56;54.81;100835.38;123343;1099;104328;-74
2024/04/09 01:03:13;;;;;;;12.33;5.03;;;;;;;14.51;54.56;100829.11;123191;1099;104255;-74
2024/04/09 01:05:44;;;;;;;10.90;4.83;;;;;;;14.47;53.95;100837.80;123192;1099;104335;-72
2024/04/09 01:08:14;;;;;;;13.93;5.10;;;;;;;14.45;54.40;100832.47;123097;1099;104338;-72
2024/04/09 01:10:45;;;;;;;10.77;4.70;;;;;;;14.43;54.61;100835.92;123093;1099;104225;-73
2024/04/09 01:13:15;;;;;;;12.23;5.27;;;;;;;14.40;54.72;100847.31;123160;1099;104274;-73
2024/04/09 01:15:45;;;;;;;11.17;5.10;;;;;;;14.39;54.54;100835.84;123080;1099;105553;-73
2024/04/09 01:18:16;;;;;;;12.73;5.30;;;;;;;14.36;54.48;100835.77;123250;1099;104331;-73
2024/04/09 01:20:46;;;;;;;9.87;4.93;;;;;;;14.28;54.65;100839.95;123396;1099;104405;-73
2024/04/09 01:23:16;;;;;;;12.50;5.33;;;;;;;14.24;54.95;100839.84;123419;1099;104265;-72
2024/04/09 01:25:46;;;;;;;12.03;5.20;;;;;;;14.21;54.42;100845.95;123375;1099;104267;-72
2024/04/09 01:28:17;;;;;;;10.00;5.57;;;;;;;14.18;54.87;100840.59;123596;1099;104322;-73
2024/04/09 01:30:51;;;;;;;12.30;5.30;;;;;;;14.16;55.24;100843.19;123324;1098;104777;-73
2024/04/09 01:33:21;;;;;;;15.03;5.20;;;;;;;14.15;55.63;100840.52;123234;1099;104386;-72
2024/04/09 01:35:52;;;;;;;12.37;5.93;;;;;;;14.13;54.75;100844.83;123344;1099;104281;-72
2024/04/09 01:38:23;;;;;;;13.87;5.63;;;;;;;14.10;55.75;100850.02;123639;1099;104281;-73
2024/04/09 01:40:53;;;;;;;12.83;6.17;;;;;;;14.05;54.99;100849.90;123778;1099;104274;-71
2024/04/09 01:43:23;;;;;;;13.47;6.37;;;;;;;14.01;55.60;100854.21;123362;1098;104326;-72
2024/04/09 01:45:54;;;;;;;12.57;6.73;;;;;;;13.98;55.62;100859.41;123150;1099;104395;-71
2024/04/09 01:48:24;;;;;;;13.93;6.53;;;;;;;13.96;54.97;100861.12;123437;1099;104386;-71
2024/04/09 01:50:54;;;;;;;12.03;5.73;;;;;;;13.94;55.16;100857.52;123390;1099;104310;-72
2024/04/09 01:53:24;;;;;;;12.47;5.50;;;;;;;13.91;55.98;100856.55;123436;1099;104377;-73
2024/04/09 01:56:02;;;;;;;13.57;5.53;;;;;;;13.89;56.04;100847.72;123303;1099;104382;-73
2024/04/09 01:58:34;;;;;;;13.67;5.70;;;;;;;13.86;55.25;100851.15;123184;1099;104384;-73
2024/04/09 02:01:09;;;;;;;13.03;6.30;;;;;;;13.83;56.08;100843.15;123261;1099;104268;-72
2024/04/09 02:03:41;;;;;;;14.80;5.77;;;;;;;13.79;55.95;100839.55;123414;1099;104338;-72
2024/04/09 02:06:16;;;;;;;15.03;6.07;;;;;;;13.74;55.54;100845.53;123475;1099;104248;-72
2024/04/09 02:08:46;;;;;;;14.93;6.80;;;;;;;13.71;56.07;100837.53;123536;1099;104233;-72
2024/04/09 02:11:17;;;;;;;13.25;5.85;;;;;;;13.70;56.03;100841.00;123148;1099;104411;-73
2024/04/09 02:13:47;;;;;;;13.03;6.33;;;;;;;13.68;56.66;100838.36;123466;1099;104275;-72
2024/04/09 02:16:18;;;;;;;15.57;6.57;;;;;;;13.64;56.16;100828.56;123239;1099;104319;-73
2024/04/09 02:18:48;;;;;;;13.27;6.33;;;;;;;13.66;56.80;100835.67;123140;1099;104224;-73
2024/04/09 02:21:20;;;;;;;15.77;6.00;;;;;;;13.70;56.58;100835.73;123194;1099;104274;-73
2024/04/09 02:23:51;;;;;;;14.17;6.23;;;;;;;13.71;56.18;100840.16;123179;1099;104226;-72
2024/04/09 02:26:23;;;;;;;15.10;6.10;;;;;;;13.71;56.71;100848.08;123184;1098;104332;-72
2024/04/09 02:28:53;;;;;;;12.57;6.03;;;;;;;13.69;57.02;100849.79;123449;1099;104348;-73
2024/04/09 02:31:24;;;;;;;15.50;6.03;;;;;;;13.67;56.99;100844.47;123482;1099;104338;-72
2024/04/09 02:33:54;;;;;;;18.47;7.30;;;;;;;13.63;57.33;100846.13;123471;1099;104348;-73
2024/04/09 02:36:25;;;;;;;21.00;7.73;;;;;;;13.60;56.93;100840.77;123136;1099;104405;-72
2024/04/09 02:38:57;;;;;;;14.77;7.33;;;;;;;13.58;57.51;100847.72;123423;1099;104626;-74
2024/04/09 02:41:27;;;;;;;18.87;7.80;;;;;;;13.56;56.76;100844.16;123161;1102;104310;-72
2024/04/09 02:43:58;;;;;;;17.07;7.70;;;;;;;13.55;57.73;100837.09;123182;1099;104271;-72
2024/04/09 02:46:28;;;;;;;18.00;8.40;;;;;;;13.55;57.42;100841.48;123104;1099;104319;-72
2024/04/09 02:48:58;;;;;;;19.25;8.80;;;;;;;13.53;57.56;100840.55;123358;1099;104397;-73
2024/04/09 02:51:29;;;;;;;19.80;8.60;;;;;;;13.50;57.56;100840.45;123257;1099;104312;-72
2024/04/09 02:53:59;;;;;;;23.40;9.25;;;;;;;13.47;56.96;100849.16;123387;1099;104271;-73
2024/04/09 02:56:30;;;;;;;20.77;9.10;;;;;;;13.46;57.09;100861.45;123461;1099;104162;-72
2024/04/09 02:59:00;;;;;;;22.87;10.00;;;;;;;13.45;57.72;100866.69;123522;1099;104375;-73
2024/04/09 03:01:31;;;;;;;20.97;9.47;;;;;;;13.48;57.68;100865.02;123480;1099;104408;-73
2024/04/09 03:04:01;;;;;;;24.43;9.33;;;;;;;13.49;57.60;100858.00;123264;1099;104238;-73
2024/04/09 03:06:31;;;;;;;20.50;8.95;;;;;;;13.51;57.59;100874.78;123149;1099;104921;-73
2024/04/09 03:09:02;;;;;;;20.43;8.70;;;;;;;13.52;57.95;100875.66;123421;1099;104249;-72
2024/04/09 03:11:32;;;;;;;21.83;8.63;;;;;;;13.49;57.32;100868.55;123225;1099;104325;-72
2024/04/09 03:14:06;;;;;;;22.00;8.43;;;;;;;13.46;58.42;100864.09;123336;1099;104405;-72
2024/04/09 03:16:37;;;;;;;18.23;8.50;;;;;;;13.46;57.89;100869.37;123334;1099;105707;-73
2024/04/09 03:19:07;;;;;;;19.90;8.57;;;;;;;13.42;57.54;100869.23;123494;1099;104265;-73
2024/04/09 03:21:38;;;;;;;21.47;8.37;;;;;;;13.41;58.43;100864.80;123493;1099;104348;-72
2024/04/09 03:24:08;;;;;;;21.67;8.33;;;;;;;13.38;57.84;100865.58;123377;1099;104342;-72
2024/04/09 03:26:39;;;;;;;20.73;8.80;;;;;;;13.36;58.24;100869.05;123338;1099;104390;-72
2024/04/09 03:29:09;;;;;;;21.20;8.87;;;;;;;13.34;58.02;100868.08;123384;1099;104364;-72
2024/04/09 03:31:39;;;;;;;25.70;9.80;;;;;;;13.31;58.30;100863.59;123279;1099;104277;-72
2024/04/09 03:34:09;;;;;;;22.73;11.20;;;;;;;13.26;57.86;100873.08;123484;1099;104350;-72
2024/04/09 03:36:40;;;;;;;24.83;10.83;;;;;;;13.22;58.39;100866.83;123387;1099;104318;-72
2024/04/09 03:39:10;;;;;;;24.97;9.47;;;;;;;13.19;58.83;100863.22;123331;1098;104527;-74
2024/04/09 03:41:40;;;;;;;24.83;9.90;;;;;;;13.17;58.58;100871.08;123494;1099;104277;-72
2024/04/09 03:44:12;;;;;;;26.30;10.50;;;;;;;13.15;58.89;100882.41;123473;1099;104345;-72
2024/04/09 03:46:42;;;;;;;24.67;9.87;;;;;;;13.12;58.79;100886.74;123504;1099;104341;-72
2024/04/09 03:49:12;;;;;;;26.53;10.07;;;;;;;13.12;59.20;100875.32;123125;1099;105067;-72
2024/04/09 03:51:43;;;;;;;22.77;9.73;;;;;;;13.16;59.23;100878.94;123191;1098;104789;-72
2024/04/09 03:54:13;;;;;;;22.60;10.17;;;;;;;13.17;59.29;100880.73;123163;1099;104274;-72
2024/04/09 03:56:43;;;;;;;23.80;10.23;;;;;;;13.18;58.97;100887.77;123162;1099;104226;-73
2024/04/09 03:59:14;;;;;;;24.30;10.10;;;;;;;13.19;58.71;100885.19;123423;1099;104382;-72
2024/04/09 04:01:44;;;;;;;25.27;11.10;;;;;;;13.21;58.87;100891.38;123477;1098;104422;-72
2024/04/09 04:04:14;;;;;;;24.13;10.50;;;;;;;13.24;58.84;100894.12;123415;1099;104384;-73
2024/04/09 04:06:45;;;;;;;21.80;9.93;;;;;;;13.26;58.99;100895.08;123292;1099;104272;-74
2024/04/09 04:09:15;;;;;;;21.50;9.07;;;;;;;13.29;58.75;100899.53;123351;1099;104363;-72
2024/04/09 04:11:46;;;;;;;21.50;10.03;;;;;;;13.33;59.57;100901.46;123205;1099;104387;-74
2024/04/09 04:14:16;;;;;;;25.43;9.73;;;;;;;13.40;59.22;100902.53;123677;1099;104434;-72
2024/04/09 04:16:47;;;;;;;22.13;10.13;;;;;;;13.44;59.47;100905.31;123459;1099;104434;-72
2024/04/09 04:19:17;;;;;;;26.40;10.57;;;;;;;13.47;59.68;100899.25;123233;1099;104296;-72
2024/04/09 04:21:47;;;;;;;22.57;9.23;;;;;;;13.52;59.23;100905.55;123291;1099;104255;-72
2024/04/09 04:24:17;;;;;;;21.90;9.73;;;;;;;13.55;58.95;100910.91;123354;1099;104695;-72
2024/04/09 04:26:48;;;;;;;20.00;9.60;;;;;;;13.58;59.93;100916.27;123279;1099;104370;-72
2024/04/09 04:29:18;;;;;;;33.43;10.53;;;;;;;13.66;59.42;100911.23;123326;1099;104405;-72
2024/04/09 04:31:48;;;;;;;30.83;10.60;;;;;;;13.72;59.20;100914.05;123178;1099;104274;-72
2024/04/09 04:34:19;;;;;;;31.03;11.40;;;;;;;13.77;59.88;100914.19;123199;1099;104271;-73
2024/04/09 04:36:49;;;;;;;25.63;11.03;;;;;;;13.83;59.76;100917.00;123277;1099;104278;-72
2024/04/09 04:39:19;;;;;;;23.90;9.93;;;;;;;13.91;60.01;100911.95;123333;1099;104242;-73
2024/04/09 04:41:50;;;;;;;20.60;9.70;;;;;;;13.97;59.94;100906.84;123648;1098;104402;-72
2024/04/09 04:44:21;;;;;;;22.23;9.50;;;;;;;14.01;60.09;100909.62;123445;1099;104428;-73
2024/04/09 04:46:51;;;;;;;22.00;9.07;;;;;;;14.06;59.04;100909.75;123598;1099;104270;-72
2024/04/09 04:49:21;;;;;;;19.37;8.23;;;;;;;14.09;59.74;100904.56;123596;1098;104239;-73
2024/04/09 04:51:52;;;;;;;23.13;8.70;;;;;;;14.13;59.61;100908.16;123349;1099;104310;-73
2024/04/09 04:54:23;;;;;;;20.30;8.40;;;;;;;14.19;59.40;100911.89;123452;1098;104530;-73
2024/04/09 04:56:54;;;;;;;18.47;8.30;;;;;;;14.26;59.11;100912.03;123767;1099;104226;-73
2024/04/09 04:59:24;;;;;;;18.10;8.30;;;;;;;14.31;59.46;100919.23;123860;1099;104268;-73
2024/04/09 05:01:56;;;;;;;19.13;7.90;;;;;;;14.37;59.85;100915.88;123989;1099;104268;-73
2024/04/09 05:04:27;;;;;;;20.55;8.00;;;;;;;14.41;59.90;100911.56;124040;1099;104200;-73
2024/04/09 05:06:58;;;;;;;19.73;8.60;;;;;;;14.44;59.00;100917.80;123858;1099;104265;-72
2024/04/09 05:09:28;;;;;;;17.57;7.70;;;;;;;14.50;59.50;100915.33;123730;1099;104709;-73
2024/04/09 05:11:58;;;;;;;16.33;7.90;;;;;;;14.55;59.47;100916.36;123308;1099;104345;-72
2024/04/09 05:14:29;;;;;;;16.33;6.83;;;;;;;14.60;59.74;100919.16;123756;1098;104268;-72
2024/04/09 05:17:05;;;;;;;17.40;6.30;;;;;;;14.63;59.08;100916.59;123990;1099;104354;-73
2024/04/09 05:19:37;;;;;;;15.37;6.63;;;;;;;14.66;59.81;100919.32;123620;1099;104338;-72
2024/04/09 05:22:09;;;;;;;11.67;5.67;;;;;;;14.72;59.60;100916.84;124238;1099;104242;-73
2024/04/09 05:24:43;;;;;;;15.93;6.00;;;;;;;14.74;59.31;100923.04;124360;1099;104249;-73
2024/04/09 05:27:14;;;;;;;14.53;5.63;;;;;;;14.79;58.82;100924.88;124148;1099;104390;-72
2024/04/09 05:29:44;;;;;;;11.73;5.00;;;;;;;14.85;58.92;100919.75;124181;1099;104367;-73
2024/04/09 05:32:16;;;;;;;15.07;5.63;;;;;;;14.87;58.92;100921.59;124363;1099;104192;-73
2024/04/09 05:34:46;;;;;;;13.67;5.50;;;;;;;14.93;58.33;100918.22;124577;1099;102841;-70
2024/04/09 05:37:16;;;;;;;13.40;5.57;;;;;;;14.98;58.33;100924.50;124397;1099;104435;-71
2024/04/09 05:39:48;;;;;;;12.43;5.30;;;;;;;15.04;58.76;100919.36;124469;1099;104217;-72
2024/04/09 05:42:18;;;;;;;14.53;5.93;;;;;;;15.12;58.96;100918.66;124668;1099;104166;-72
2024/04/09 05:44:49;;;;;;;13.67;5.53;;;;;;;15.22;58.22;100923.30;124102;1099;104351;-72
2024/04/09 05:47:20;;;;;;;12.73;5.80;;;;;;;15.31;57.92;100910.29;124260;1099;104223;-72
2024/04/09 05:49:51;;;;;;;14.83;5.60;;;;;;;15.41;58.74;100914.94;124148;1099;104303;-73
2024/04/09 05:52:21;;;;;;;17.90;6.60;;;;;;;15.55;58.36;100914.34;124327;1099;103148;-71
2024/04/09 05:54:52;;;;;;;21.27;6.27;;;;;;;15.69;58.60;100923.48;124396;1099;103732;-73
2024/04/09 05:57:22;;;;;;;17.77;6.17;;;;;;;15.82;58.06;100924.67;124642;1099;104161;-73
2024/04/09 05:59:54;;;;;;;17.23;6.47;;;;;;;15.95;58.35;100915.22;124672;1099;104387;-72
2024/04/09 06:02:25;;;;;;;17.80;6.80;;;;;;;16.07;58.11;100927.82;124732;1099;102833;-73
2024/04/09 06:04:59;;;;;;;20.27;6.60;;;;;;;16.16;57.55;100928.89;124699;1099;104172;-72
2024/04/09 06:07:30;;;;;;;15.70;6.53;;;;;;;16.28;57.95;100930.89;124820;1099;102306;-72
2024/04/09 06:10:02;;;;;;;14.33;6.43;;;;;;;16.41;57.65;100926.71;124580;1099;104339;-73
2024/04/09 06:12:34;;;;;;;12.57;6.00;;;;;;;16.57;58.13;100937.59;124294;1099;104229;-73
2024/04/09 06:15:06;;;;;;;18.93;6.90;;;;;;;16.71;57.59;100936.95;124320;1099;104200;-72
2024/04/09 06:17:36;;;;;;;20.07;6.20;;;;;;;16.88;57.88;100934.63;124572;1099;102395;-73
2024/04/09 06:20:17;;;;;;;12.20;5.65;;;;;;;17.03;57.56;100939.31;124725;1099;104235;-73
2024/04/09 06:22:47;;;;;;;17.03;6.00;;;;;;;17.14;57.32;100936.83;126576;1099;109572;-73
2024/04/09 06:25:18;;;;;;;16.47;6.30;;;;;;;17.21;57.30;100938.69;126738;1098;101922;-74
2024/04/09 06:27:50;;;;;;;19.77;6.83;;;;;;;17.29;57.09;100937.92;126228;1099;101837;-72
2024/04/09 06:30:20;;;;;;;15.20;6.63;;;;;;;17.43;56.97;100944.31;126729;1098;101813;-72
2024/04/09 06:32:56;;;;;;;14.97;6.07;;;;;;;17.55;57.40;100941.84;126672;1098;117851;-74
2024/04/09 06:35:27;;;;;;;16.80;5.93;;;;;;;17.70;56.53;100934.95;125963;1099;104395;-71
2024/04/09 06:37:57;;;;;;;18.27;6.33;;;;;;;17.78;56.43;100933.32;123997;1099;104248;-71
2024/04/09 06:40:28;;;;;;;16.23;6.37;;;;;;;17.93;56.43;100928.20;123963;1099;104268;-72
2024/04/09 06:42:59;;;;;;;16.20;6.90;;;;;;;18.09;56.30;100931.97;124355;1099;104210;-72
2024/04/09 06:45:29;;;;;;;19.80;6.67;;;;;;;18.23;56.11;100932.13;124395;1099;104175;-73
2024/04/09 06:47:59;;;;;;;14.23;6.27;;;;;;;18.38;55.77;100933.16;124392;1099;104249;-72
2024/04/09 06:50:32;;;;;;;12.33;5.17;;;;;;;18.55;55.94;100931.55;123900;1099;104265;-72
2024/04/09 06:53:06;;;;;;;20.55;6.50;;;;;;;18.69;55.43;100937.00;123889;1099;104223;-74
2024/04/09 06:55:45;;;;;;;24.10;6.53;;;;;;;18.79;55.54;100930.00;124034;1099;104176;-72
2024/04/09 06:58:17;;;;;;;17.47;6.17;;;;;;;18.96;55.51;100938.15;126195;1099;102004;-71
2024/04/09 07:00:51;;;;;;;17.52;5.83;;;;;;;19.13;55.23;100941.83;126125;1099;102049;-71
2024/04/09 07:03:22;;;;;;;19.50;6.20;;;;;;;19.33;55.43;100941.97;126538;1098;102314;-71
2024/04/09 07:05:52;;;;;;;20.47;6.00;;;;;;;19.53;54.54;100927.91;124298;1099;104242;-71
2024/04/09 07:08:25;;;;;;;13.85;4.45;;;;;;;19.69;54.14;100937.75;124093;1099;104255;-73
2024/04/09 07:11:02;;;;;;;8.67;4.20;;;;;;;19.86;54.11;100935.20;124203;1099;104245;-72
2024/04/09 07:13:33;;;;;;;13.67;4.93;;;;;;;19.96;53.33;100936.16;124256;1099;104220;-71
2024/04/09 07:16:05;;;;;;;12.57;4.30;;;;;;;20.09;53.46;100926.42;124297;1099;104280;-72
2024/04/09 07:18:39;;;;;;;11.20;3.47;;;;;;;20.23;52.80;100929.14;124379;1099;104290;-72
2024/04/09 07:21:12;;;;;;;12.50;3.60;;;;;;;20.43;53.82;100934.52;126528;1099;101891;-72
2024/04/09 07:23:49;;;;;;;11.70;4.17;;;;;;;20.61;52.48;100936.30;126144;1099;103659;-71
2024/04/09 07:26:22;;;;;;;8.43;3.70;;;;;;;20.75;51.91;100934.56;124745;1102;104405;-72
2024/04/09 07:28:53;;;;;;;13.17;4.30;;;;;;;20.95;52.15;100928.36;124406;1099;104255;-72
2024/04/09 07:31:23;;;;;;;12.73;3.80;;;;;;;21.10;51.96;100931.03;124213;1099;103760;-71
2024/04/09 07:33:55;;;;;;;10.40;3.77;;;;;;;21.19;51.99;100932.78;124108;1098;104230;-73
2024/04/09 07:36:29;;;;;;;7.50;3.50;;;;;;;21.31;51.03;100924.75;124080;1099;104298;-72
2024/04/09 07:39:00;;;;;;;9.97;3.60;;;;;;;21.50;51.71;100919.41;124065;1099;104251;-73
2024/04/09 07:41:30;;;;;;;11.07;3.77;;;;;;;21.69;50.97;100922.91;124162;1099;102771;-72
2024/04/09 07:44:01;;;;;;;11.17;3.80;;;;;;;21.82;50.67;100918.44;124136;1099;104246;-71
2024/04/09 07:46:31;;;;;;;8.73;3.40;;;;;;;21.95;50.89;100919.26;124627;1099;104277;-72
2024/04/09 07:49:04;;;;;;;7.37;3.33;;;;;;;22.07;49.65;100911.19;124369;1099;104596;-74
2024/04/09 07:51:34;;;;;;;11.07;3.53;;;;;;;22.21;49.54;100905.77;123856;1099;104252;-72
2024/04/09 07:54:07;;;;;;;11.50;3.30;;;;;;;22.33;49.57;100912.84;124101;1102;104261;-72
2024/04/09 07:56:41;;;;;;;10.50;3.70;;;;;;;22.41;48.85;100911.03;123994;1099;104245;-73
2024/04/09 07:59:12;;;;;;;7.83;2.97;;;;;;;22.58;48.75;100911.79;124174;1102;103055;-72
2024/04/09 08:01:43;;;;;;;8.60;3.37;;;;;;;22.63;48.29;100903.73;123956;1102;102201;-71
2024/04/09 08:04:13;;;;;;;6.60;2.60;;;;;;;22.73;46.85;100907.21;124221;1099;104054;-72
2024/04/09 08:06:44;;;;;;;3.87;2.60;;;;;;;22.88;46.40;100901.73;124166;1102;105561;-72
2024/04/09 08:09:14;;;;;;;4.53;2.33;;;;;;;23.02;45.78;100903.41;124361;1099;104204;-71
2024/04/09 08:11:45;;;;;;;5.83;2.50;;;;;;;23.16;45.03;100906.88;123844;1099;104240;-71
2024/04/09 08:14:15;;;;;;;4.20;2.23;;;;;;;23.32;44.85;100902.23;123834;1099;104320;-72
2024/04/09 08:16:53;;;;;;;7.13;2.43;;;;;;;23.44;43.55;100906.59;123770;1099;104338;-73
2024/04/09 08:19:27;;;;;;;3.30;2.40;;;;;;;23.52;42.71;100899.34;123942;1099;104204;-72
2024/04/09 08:22:00;;;;;;;3.57;2.20;;;;;;;23.61;41.29;100899.23;123675;1099;104240;-72
2024/04/09 08:24:31;;;;;;;3.10;2.47;;;;;;;23.67;41.33;100903.65;125076;1098;104271;-72
2024/04/09 08:27:01;;;;;;;5.27;2.50;;;;;;;23.74;40.97;100902.64;123893;1102;104249;-73
2024/04/09 08:29:33;;;;;;;5.90;2.30;;;;;;;23.87;40.96;100895.36;123924;1099;102923;-72
2024/04/09 08:32:04;;;;;;;5.97;2.60;;;;;;;23.93;39.12;100897.97;123768;1099;104242;-72
2024/04/09 08:34:34;;;;;;;5.30;2.90;;;;;;;23.95;39.46;100893.49;123878;1099;101852;-73
2024/04/09 08:37:13;;;;;;;4.45;2.70;;;;;;;24.03;39.86;100890.71;123948;1099;104227;-72
2024/04/09 08:39:52;;;;;;;6.05;2.70;;;;;;;24.11;39.31;100885.24;123833;1099;104460;-72
2024/04/09 08:42:23;;;;;;;3.60;2.67;;;;;;;24.15;39.41;100889.62;124109;1099;104251;-72
2024/04/09 08:44:59;;;;;;;3.87;2.50;;;;;;;24.19;39.59;100888.69;123636;1099;104198;-72
2024/04/09 08:47:29;;;;;;;5.10;2.70;;;;;;;24.28;39.01;100884.97;123837;1099;104271;-72
2024/04/09 08:50:00;;;;;;;7.60;2.90;;;;;;;24.28;37.51;100885.88;123643;1098;104265;-73
2024/04/09 08:52:35;;;;;;;6.77;2.80;;;;;;;24.26;38.53;100887.67;123743;1099;104354;-73
2024/04/09 08:55:08;;;;;;;4.83;2.73;;;;;;;24.34;38.85;100888.47;124379;1099;104243;-73
2024/04/09 08:57:39;;;;;;;4.83;3.00;;;;;;;24.40;37.66;100885.69;123949;1099;104267;-72
2024/04/09 09:00:16;;;;;;;5.17;2.80;;;;;;;24.40;38.08;100880.33;125173;1099;104810;-74
2024/04/09 09:02:47;;;;;;;6.97;3.20;;;;;;;24.41;37.65;100881.20;124176;1099;104264;-73
2024/04/09 09:05:22;;;;;;;7.03;3.23;;;;;;;24.43;37.87;100875.81;123988;1099;103054;-73
2024/04/09 09:08:03;;;;;;;3.93;2.60;;;;;;;24.48;37.65;100877.53;123939;1103;104511;-72
2024/04/09 09:10:34;;;;;;;2.43;2.23;;;;;;;24.59;37.60;100874.70;123913;1099;105155;-73
2024/04/09 09:13:06;;;;;;;4.50;2.90;;;;;;;24.62;37.25;100863.92;124025;1099;104159;-74
2024/04/09 09:15:38;;;;;;;5.13;2.60;;;;;;;24.64;36.82;100867.45;124323;1099;104230;-73
2024/04/09 09:18:09;;;;;;;9.13;2.90;;;;;;;24.62;36.69;100860.33;124413;1099;104288;-73
2024/04/09 09:20:43;;;;;;;6.03;2.90;;;;;;;24.64;37.05;100867.45;124541;1099;104172;-75
2024/04/09 09:23:21;;;;;;;13.20;3.00;;;;;;;24.70;36.64;100864.67;124139;1099;104172;-70
2024/04/09 09:25:52;;;;;;;6.30;2.63;;;;;;;24.70;36.50;100856.63;124202;1099;104310;-73
2024/04/09 09:28:30;;;;;;;4.90;2.70;;;;;;;24.74;36.42;100858.36;124522;1099;104246;-71
2024/04/09 09:31:00;;;;;;;6.33;2.80;;;;;;;24.80;35.87;100851.09;124254;1099;104245;-71
2024/04/09 09:33:32;;;;;;;4.00;2.70;;;;;;;24.80;36.20;100840.36;124350;1099;103078;-72
2024/04/09 09:36:06;;;;;;;3.90;2.60;;;;;;;24.78;35.61;100842.17;124575;1099;102413;-71
2024/04/09 09:38:39;;;;;;;5.83;2.87;;;;;;;24.82;35.81;100843.89;124533;1099;104195;-72
2024/04/09 09:41:11;;;;;;;4.50;2.80;;;;;;;24.82;35.15;100843.89;124510;1099;102086;-73
2024/04/09 09:43:42;;;;;;;;;;;;;;;24.83;34.82;100842.99;124337;1099;104270;-72
2024/04/09 09:46:16;;;;;;;7.97;2.63;;;;;;;24.90;35.13;100847.31;124535;1099;104329;-72
2024/04/09 09:48:51;;;;;;;4.37;2.80;;;;;;;24.97;34.80;100848.11;124555;1099;104271;-72
2024/04/09 09:51:23;;;;;;;3.40;2.60;;;;;;;24.96;34.74;100832.91;124337;1099;104683;-73
2024/04/09 09:53:54;;;;;;;5.17;2.70;;;;;;;24.98;34.93;100844.49;124386;1099;102228;-73
2024/04/09 09:56:28;;;;;;;5.15;2.90;;;;;;;24.89;34.54;100841.08;124505;1099;102696;-75
2024/04/09 09:59:00;;;;;;;5.20;2.90;;;;;;;24.89;34.25;100832.15;124013;1099;104243;-74
2024/04/09 10:01:32;;;;;;;7.67;2.80;;;;;;;24.90;33.74;100828.53;124054;1099;104242;-74
2024/04/09 10:04:04;;;;;;;6.93;2.80;;;;;;;24.97;33.67;100826.64;124050;1102;104750;-73
2024/04/09 10:06:34;;;;;;;6.60;2.80;;;;;;;25.06;34.02;100818.41;124619;1099;103051;-72
2024/04/09 10:09:11;;;;;;;6.30;2.93;;;;;;;25.10;33.19;100809.36;124488;1099;104169;-72
2024/04/09 10:11:46;;;;;;;4.03;2.60;;;;;;;25.09;33.27;100808.48;124126;1099;104297;-73
2024/04/09 10:20:04;;;;;;;6.53;2.80;;;;;;;25.24;33.19;100806.41;124678;1099;104277;-72
2024/04/09 10:22:43;;;;;;;6.10;2.95;;;;;;;25.23;33.28;100800.16;124305;1099;104663;-73
2024/04/09 10:25:22;;;;;;;6.80;3.10;;;;;;;25.24;33.21;100799.26;124264;1099;104201;-73
2024/04/09 10:28:04;;;;;;;7.03;3.27;;;;;;;25.23;32.82;100796.60;124338;1099;104172;-72
2024/04/09 10:30:37;;;;;;;4.65;2.90;;;;;;;25.23;32.93;100801.97;124096;1102;104140;-72
2024/04/09 10:33:08;;;;;;;4.30;2.77;;;;;;;25.26;33.00;100796.54;124016;1099;104281;-72
2024/04/09 10:35:48;;;;;;;6.20;2.80;;;;;;;25.29;33.34;100796.48;123969;1099;104255;-73
2024/04/09 10:38:19;;;;;;;9.30;2.90;;;;;;;25.31;32.20;100794.67;126078;1099;102559;-74
2024/04/09 10:40:50;;;;;;;7.43;2.80;;;;;;;25.28;32.69;100792.92;126186;1099;102354;-73
2024/04/09 10:43:21;;;;;;;5.60;2.90;;;;;;;25.33;30.82;100782.08;126235;1099;102104;-74
2024/04/09 10:45:54;;;;;;;7.40;3.17;;;;;;;25.36;32.36;100790.08;125538;1099;102295;-74
2024/04/09 10:48:25;;;;;;;5.17;2.80;;;;;;;25.39;32.51;100791.83;124171;1099;104353;-74
2024/04/09 10:50:56;;;;;;;6.93;2.77;;;;;;;25.37;32.19;100775.73;124041;1099;104232;-74
2024/04/09 10:53:27;;;;;;;4.07;2.77;;;;;;;25.34;31.96;100775.80;124134;1099;104271;-75
2024/04/09 10:56:03;;;;;;;4.57;2.87;;;;;;;25.36;31.69;100779.33;124232;1103;103303;-75
2024/04/09 10:58:37;;;;;;;6.57;3.17;;;;;;;25.39;31.71;100773.02;124173;1099;104242;-74
2024/04/09 11:01:14;;;;;;;8.30;3.23;;;;;;;25.30;31.66;100772.28;124081;1099;104226;-72
2024/04/09 11:03:49;;;;;;;6.67;2.83;;;;;;;25.30;31.54;100766.03;124013;1099;104242;-73
2024/04/09 11:06:19;;;;;;;6.95;3.10;;;;;;;25.35;32.13;100766.80;124058;1099;103253;-73
2024/04/09 11:08:54;;;;;;;;;;;;;;;25.38;31.80;100752.44;123730;1099;104197;-75
2024/04/09 11:11:31;;;;;;;8.23;2.80;;;;;;;25.41;31.17;100742.50;123986;1099;104290;-72
2024/04/09 11:14:02;;;;;;;4.67;3.10;;;;;;;25.34;31.49;100765.06;125171;1100;104166;-75
2024/04/09 11:16:32;;;;;;;6.60;3.30;;;;;;;25.35;31.59;100752.51;123978;1099;104194;-73
2024/04/09 11:19:03;;;;;;;7.60;3.03;;;;;;;25.36;31.52;100744.41;124249;1102;102356;-73
2024/04/09 11:21:33;;;;;;;6.00;2.93;;;;;;;25.40;31.58;100754.19;123831;1099;104219;-73
2024/04/09 11:24:08;;;;;;;3.80;2.73;;;;;;;25.40;30.92;100759.56;124345;1099;104272;-73
2024/04/09 11:26:45;;;;;;;4.70;2.70;;;;;;;25.39;31.31;100741.66;124184;1099;104219;-72
2024/04/09 11:29:26;;;;;;;3.67;2.50;;;;;;;25.36;30.77;100743.55;123970;1099;104238;-73
2024/04/09 11:32:01;;;;;;;4.90;2.73;;;;;;;25.35;31.30;100736.39;124076;1099;104271;-73